createdAt,value
2022-10-17T00:02:00.916Z,1.25
2022-10-17T00:04:27.591Z,1.45
2022-10-17T00:06:54.164Z,1.52
2022-10-17T00:09:20.687Z,1.38
2022-10-17T00:11:47.263Z,1.30
2022-10-17T00:14:13.889Z,1.48
2022-10-17T00:16:40.493Z,1.40
2022-10-17T00:19:07.487Z,1.40
2022-10-17T00:21:35.045Z,1.60
2022-10-17T00:24:01.734Z,1.52
2022-10-17T00:26:31.207Z,1.52
2022-10-17T00:28:57.898Z,2.50
2022-10-17T00:31:25.170Z,1.77
2022-10-17T00:33:52.216Z,1.90
2022-10-17T00:36:21.780Z,1.88
2022-10-17T00:38:50.891Z,1.63
2022-10-17T00:41:19.552Z,1.70
2022-10-17T00:43:53.196Z,1.95
2022-10-17T00:46:21.278Z,1.90
2022-10-17T00:48:50.176Z,1.98
2022-10-17T00:51:17.792Z,2.22
2022-10-17T00:53:44.511Z,1.67
2022-10-17T00:56:11.543Z,1.85
2022-10-17T00:58:38.233Z,2.10
2022-10-17T01:01:05.033Z,1.83
2022-10-17T01:03:31.643Z,1.85
2022-10-17T01:05:58.243Z,1.80
2022-10-17T01:08:24.860Z,1.83
2022-10-17T01:10:51.379Z,2.05
2022-10-17T01:13:25.595Z,1.83
2022-10-17T01:16:07.463Z,2.17
2022-10-17T01:18:56.836Z,2.50
2022-10-17T01:21:38.389Z,2.17
2022-10-17T01:24:07.895Z,2.20
2022-10-17T01:26:56.132Z,2.33
2022-10-17T01:29:47.519Z,2.25
2022-10-17T01:32:17.423Z,2.45
2022-10-17T01:34:56.067Z,2.45
2022-10-17T01:37:39.148Z,2.78
2022-10-17T01:40:31.695Z,2.50
2022-10-17T01:43:00.955Z,2.83
2022-10-17T01:45:33.826Z,2.58
2022-10-17T01:48:04.022Z,2.92
2022-10-17T01:50:44.336Z,2.53
2022-10-17T01:53:14.696Z,3.08
2022-10-17T01:55:44.095Z,2.63
2022-10-17T01:58:15.279Z,3.20
2022-10-17T02:00:43.168Z,2.97
2022-10-17T02:03:13.763Z,3.38
2022-10-17T02:05:41.745Z,2.05
2022-10-17T02:08:08.403Z,3.03
2022-10-17T02:11:00.023Z,2.50
2022-10-17T02:13:48.551Z,2.95
2022-10-17T02:16:33.707Z,3.22
2022-10-17T02:19:16.068Z,2.95
2022-10-17T02:21:50.937Z,3.30
2022-10-17T02:24:38.447Z,3.30
2022-10-17T02:27:26.407Z,3.47
2022-10-17T02:29:59.299Z,2.67
2022-10-17T02:32:34.935Z,2.60
2022-10-17T02:35:04.081Z,2.95
2022-10-17T02:37:31.719Z,2.90
2022-10-17T02:40:00.217Z,3.73
2022-10-17T02:42:28.303Z,2.83
2022-10-17T02:44:55.469Z,3.22
2022-10-17T02:47:26.636Z,3.55
2022-10-17T02:49:55.541Z,3.28
2022-10-17T02:52:43.204Z,2.92
2022-10-17T02:55:36.146Z,2.65
2022-10-17T02:58:13.884Z,2.90
2022-10-17T03:00:41.047Z,3.55
2022-10-17T03:03:25.368Z,3.60
2022-10-17T03:05:52.906Z,3.22
2022-10-17T03:08:20.054Z,3.03
2022-10-17T03:10:46.771Z,2.90
2022-10-17T03:13:14.404Z,3.03
2022-10-17T03:15:41.107Z,3.13
2022-10-17T03:18:07.958Z,2.85
2022-10-17T03:20:34.524Z,3.17
2022-10-17T03:23:01.069Z,3.55
2022-10-17T03:25:28.144Z,3.45
2022-10-17T03:27:54.912Z,3.40
2022-10-17T03:30:21.459Z,2.90
2022-10-17T03:32:48.086Z,3.67
2022-10-17T03:35:15.190Z,3.17
2022-10-17T03:37:41.783Z,3.10
2022-10-17T03:40:08.920Z,3.35
2022-10-17T03:42:35.479Z,3.70
2022-10-17T03:45:02.077Z,2.75
2022-10-17T03:47:29.467Z,2.83
2022-10-17T03:49:56.117Z,3.00
2022-10-17T03:52:22.718Z,3.03
2022-10-17T03:54:50.707Z,3.80
2022-10-17T03:57:18.369Z,3.05
2022-10-17T03:59:45.119Z,3.17
2022-10-17T04:02:11.690Z,3.53
2022-10-17T04:04:38.228Z,3.25
2022-10-17T04:07:04.813Z,3.42
2022-10-17T04:09:31.368Z,3.67
2022-10-17T04:11:57.958Z,3.13
2022-10-17T04:14:24.571Z,3.75
2022-10-17T04:16:51.192Z,3.55
2022-10-17T04:19:17.745Z,3.97
2022-10-17T04:21:44.326Z,4.43
2022-10-17T04:24:11.912Z,3.40
2022-10-17T04:26:38.521Z,3.75
2022-10-17T04:29:05.104Z,3.85
2022-10-17T04:31:31.694Z,4.05
2022-10-17T04:33:58.227Z,3.50
2022-10-17T04:36:24.850Z,4.53
2022-10-17T04:38:51.461Z,3.85
2022-10-17T04:41:18.880Z,3.80
2022-10-17T04:43:48.623Z,3.72
2022-10-17T04:46:17.883Z,4.07
2022-10-17T04:48:44.887Z,3.35
2022-10-17T04:51:14.225Z,4.05
2022-10-17T04:53:41.698Z,3.63
2022-10-17T04:56:14.434Z,3.88
2022-10-17T04:58:41.851Z,3.67
2022-10-17T05:01:10.369Z,3.63
2022-10-17T05:06:08.100Z,4.20
2022-10-17T05:08:35.510Z,4.28
2022-10-17T05:11:02.151Z,4.07
2022-10-17T05:13:28.748Z,4.15
2022-10-17T05:15:59.843Z,4.22
2022-10-17T05:18:26.946Z,4.15
2022-10-17T05:20:53.671Z,4.00
2022-10-17T05:23:20.216Z,4.53
2022-10-17T05:25:46.783Z,4.50
2022-10-17T05:28:13.385Z,4.07
2022-10-17T05:30:39.944Z,3.97
2022-10-17T05:33:06.519Z,5.03
2022-10-17T05:35:33.116Z,4.78
2022-10-17T05:38:00.604Z,4.10
2022-10-17T05:40:27.380Z,5.20
2022-10-17T05:42:53.960Z,4.80
2022-10-17T05:45:20.527Z,4.78
2022-10-17T05:47:47.081Z,4.05
2022-10-17T05:50:13.755Z,3.90
2022-10-17T05:52:42.857Z,5.00
2022-10-17T05:55:11.720Z,4.68
2022-10-17T05:57:38.476Z,4.00
2022-10-17T06:00:06.094Z,3.70
2022-10-17T06:02:33.191Z,4.72
2022-10-17T06:05:00.093Z,3.72
2022-10-17T06:07:26.735Z,4.97
2022-10-17T06:09:53.310Z,4.50
2022-10-17T06:12:19.940Z,4.57
2022-10-17T06:14:46.540Z,4.97
2022-10-17T06:17:16.030Z,5.13
2022-10-17T06:19:44.796Z,4.47
2022-10-17T06:22:11.911Z,4.10
2022-10-17T06:24:38.605Z,4.13
2022-10-17T06:27:10.819Z,4.13
2022-10-17T06:29:39.085Z,3.97
2022-10-17T06:32:06.936Z,4.05
2022-10-17T06:34:35.292Z,3.97
2022-10-17T06:37:02.007Z,4.22
2022-10-17T06:39:33.810Z,4.10
2022-10-17T06:42:04.253Z,3.75
2022-10-17T06:44:31.943Z,3.80
2022-10-17T06:46:59.614Z,4.50
2022-10-17T06:49:26.804Z,4.00
2022-10-17T06:51:53.800Z,4.03
2022-10-17T06:54:20.463Z,4.30
2022-10-17T06:56:47.032Z,3.95
2022-10-17T06:59:13.652Z,4.45
2022-10-17T07:01:41.892Z,3.80
2022-10-17T07:04:11.285Z,4.20
2022-10-17T07:06:38.545Z,4.32
2022-10-17T07:09:07.004Z,4.68
2022-10-17T07:11:35.115Z,4.32
2022-10-17T07:14:02.175Z,4.30
2022-10-17T07:16:28.983Z,4.18
2022-10-17T07:18:55.848Z,3.42
2022-10-17T07:21:22.492Z,4.28
2022-10-17T07:23:49.032Z,4.30
2022-10-17T07:26:17.535Z,4.60
2022-10-17T07:28:45.375Z,4.45
2022-10-17T07:31:15.061Z,4.40
2022-10-17T07:33:42.281Z,4.22
2022-10-17T07:36:09.243Z,4.13
2022-10-17T07:38:36.304Z,4.43
2022-10-17T07:41:05.391Z,3.92
2022-10-17T07:43:32.358Z,4.20
2022-10-17T07:46:01.136Z,4.07
2022-10-17T07:48:27.755Z,4.13
2022-10-17T07:50:54.293Z,4.32
2022-10-17T07:53:21.003Z,3.67
2022-10-17T07:55:49.596Z,4.18
2022-10-17T08:00:42.722Z,3.80
2022-10-17T08:03:10.873Z,3.90
2022-10-17T08:05:37.463Z,4.07
2022-10-17T08:08:04.113Z,3.90
2022-10-17T08:10:30.676Z,4.13
2022-10-17T08:12:58.522Z,4.05
2022-10-17T08:15:29.382Z,3.13
2022-10-17T08:17:59.317Z,3.45
2022-10-17T08:20:26.232Z,4.30
2022-10-17T08:22:54.396Z,4.10
2022-10-17T08:25:21.616Z,3.47
2022-10-17T08:27:48.251Z,3.85
2022-10-17T08:30:14.960Z,3.90
2022-10-17T08:32:41.927Z,3.33
2022-10-17T08:35:08.898Z,4.03
2022-10-17T08:37:35.508Z,3.35
2022-10-17T08:40:02.073Z,3.42
2022-10-17T08:42:40.651Z,3.78
2022-10-17T08:45:22.506Z,3.50
2022-10-17T08:47:53.325Z,3.45
2022-10-17T08:50:35.052Z,3.25
2022-10-17T08:53:07.803Z,3.10
2022-10-17T08:55:45.713Z,3.38
2022-10-17T08:58:20.368Z,2.78
2022-10-17T09:00:55.872Z,2.85
2022-10-17T09:03:22.418Z,3.40
2022-10-17T09:06:16.496Z,3.15
2022-10-17T09:08:48.652Z,3.85
2022-10-17T09:11:43.484Z,3.33
2022-10-17T09:14:09.968Z,3.42
2022-10-17T09:16:59.499Z,2.83
2022-10-17T09:19:33.645Z,2.70
2022-10-17T09:22:32.096Z,3.10
2022-10-17T09:25:03.263Z,3.00
2022-10-17T09:27:40.760Z,3.38
2022-10-17T09:30:45.182Z,3.22
2022-10-17T09:33:34.822Z,3.00
2022-10-17T09:36:19.526Z,2.83
2022-10-17T09:41:43.716Z,2.92
2022-10-17T09:44:22.876Z,3.40
2022-10-17T09:47:17.487Z,2.90
2022-10-17T09:49:46.137Z,3.40
2022-10-17T09:52:20.211Z,3.22
2022-10-17T09:54:50.168Z,3.13
2022-10-17T09:57:18.272Z,2.97
2022-10-17T10:00:02.815Z,3.03
2022-10-17T10:02:31.224Z,2.55
2022-10-17T10:07:37.142Z,3.10
2022-10-17T10:10:06.073Z,2.90
2022-10-17T10:12:36.266Z,3.53
2022-10-17T10:15:24.059Z,3.38
2022-10-17T10:17:50.634Z,3.22
2022-10-17T10:20:34.043Z,4.03
2022-10-17T10:23:18.307Z,3.58
2022-10-17T10:25:56.735Z,3.35
2022-10-17T10:30:55.700Z,3.05
2022-10-17T10:33:24.095Z,3.30
2022-10-17T10:36:01.220Z,2.92
2022-10-17T10:38:28.513Z,3.00
2022-10-17T10:40:57.191Z,3.10
2022-10-17T10:43:33.358Z,2.92
2022-10-17T10:46:00.744Z,3.25
2022-10-17T10:48:37.548Z,3.08
2022-10-17T10:51:07.100Z,3.22
2022-10-17T10:53:47.543Z,3.50
2022-10-17T10:56:20.034Z,3.55
2022-10-17T10:59:03.545Z,3.30
2022-10-17T11:01:48.375Z,3.65
2022-10-17T11:04:32.056Z,3.58
2022-10-17T11:07:17.693Z,4.25
2022-10-17T11:09:54.904Z,3.58
2022-10-17T11:12:28.297Z,3.58
2022-10-17T11:15:08.363Z,3.40
2022-10-17T11:18:03.427Z,4.50
2022-10-17T11:20:38.631Z,3.40
2022-10-17T11:23:14.249Z,3.30
2022-10-17T11:25:42.168Z,3.65
2022-10-17T11:28:14.444Z,3.83
2022-10-17T11:30:48.437Z,4.38
2022-10-17T11:33:20.544Z,3.42
2022-10-17T11:35:49.822Z,4.07
2022-10-17T11:38:32.873Z,3.58
2022-10-17T11:41:00.343Z,4.18
2022-10-17T11:43:31.321Z,4.00
2022-10-17T11:46:25.058Z,3.58
2022-10-17T11:49:16.111Z,3.85
2022-10-17T11:52:04.385Z,4.05
2022-10-17T11:54:37.405Z,4.10
2022-10-17T11:57:36.096Z,4.40
2022-10-17T12:00:17.576Z,4.13
2022-10-17T12:02:44.083Z,3.92
2022-10-17T12:05:24.994Z,3.97
2022-10-17T12:08:05.900Z,3.88
2022-10-17T12:11:05.630Z,4.40
2022-10-17T12:13:32.530Z,4.30
2022-10-17T12:16:19.418Z,4.63
2022-10-17T12:18:46.970Z,4.45
2022-10-17T12:21:14.061Z,4.10
2022-10-17T12:23:41.282Z,4.65
2022-10-17T12:26:09.599Z,5.05
2022-10-17T12:28:46.987Z,4.65
2022-10-17T12:31:17.452Z,4.25
2022-10-17T12:33:46.772Z,5.43
2022-10-17T12:36:22.284Z,5.50
2022-10-17T12:39:13.606Z,6.30
2022-10-17T12:41:40.261Z,5.63
2022-10-17T12:44:12.936Z,6.07
2022-10-17T12:47:03.444Z,6.38
2022-10-17T12:49:39.850Z,6.25
2022-10-17T12:52:45.119Z,5.78
2022-10-17T12:55:14.642Z,6.15
2022-10-17T12:58:00.140Z,6.20
2022-10-17T13:00:49.874Z,5.38
2022-10-17T13:03:29.274Z,5.80
2022-10-17T13:05:58.250Z,5.35
2022-10-17T13:08:28.856Z,4.95
2022-10-17T13:10:56.070Z,5.30
2022-10-17T13:13:33.817Z,5.53
2022-10-17T13:16:00.414Z,5.00
2022-10-17T13:18:29.059Z,5.70
2022-10-17T13:21:06.001Z,5.10
2022-10-17T13:23:37.833Z,5.65
2022-10-17T13:26:12.246Z,6.18
2022-10-17T13:28:39.648Z,5.30
2022-10-17T13:31:07.085Z,5.60
2022-10-17T13:33:34.005Z,5.85
2022-10-17T13:36:03.333Z,5.57
2022-10-17T13:38:32.781Z,5.00
2022-10-17T13:41:16.557Z,5.75
2022-10-17T13:43:48.108Z,4.93
2022-10-17T13:46:37.981Z,5.30
2022-10-17T13:49:23.201Z,5.55
2022-10-17T13:51:53.515Z,5.10
2022-10-17T13:54:32.215Z,5.30
2022-10-17T13:57:00.546Z,4.32
2022-10-17T13:59:47.861Z,4.18
2022-10-17T14:02:17.356Z,4.37
2022-10-17T14:05:15.526Z,4.45
2022-10-17T14:08:10.051Z,3.88
2022-10-17T14:10:33.763Z,4.00
2022-10-17T14:13:01.299Z,3.90
2022-10-17T14:15:31.463Z,4.35
2022-10-17T14:18:07.994Z,4.10
2022-10-17T14:23:34.608Z,3.85
2022-10-17T14:26:13.432Z,3.60
2022-10-17T14:28:42.031Z,3.97
2022-10-17T14:31:31.318Z,4.25
2022-10-17T14:33:58.155Z,4.53
2022-10-17T14:36:39.439Z,5.13
2022-10-17T14:39:13.327Z,5.13
2022-10-17T14:41:44.128Z,4.95
2022-10-17T14:44:40.331Z,5.40
2022-10-17T14:47:38.171Z,5.00
2022-10-17T14:50:20.680Z,6.03
2022-10-17T14:53:04.643Z,6.22
2022-10-17T14:55:33.550Z,6.72
2022-10-17T14:58:00.164Z,5.50
2022-10-17T15:00:26.879Z,5.53
2022-10-17T15:02:54.847Z,5.00
2022-10-17T15:05:23.288Z,5.97
2022-10-17T15:07:49.855Z,4.78
2022-10-17T15:10:25.600Z,5.25
2022-10-17T15:12:57.541Z,5.15
2022-10-17T15:15:30.228Z,5.53
2022-10-17T15:17:56.776Z,5.10
2022-10-17T15:20:27.880Z,5.00
2022-10-17T15:22:55.339Z,5.13
2022-10-17T15:25:22.233Z,5.20
2022-10-17T15:27:48.920Z,4.60
2022-10-17T15:30:21.815Z,4.40
2022-10-17T15:32:49.300Z,4.43
2022-10-17T15:35:16.493Z,4.50
2022-10-17T15:37:43.732Z,4.28
2022-10-17T15:40:15.866Z,4.00
2022-10-17T15:42:42.880Z,4.47
2022-10-17T15:45:17.630Z,4.18
2022-10-17T15:47:52.586Z,3.95
2022-10-17T15:50:19.951Z,4.07
2022-10-17T15:52:47.252Z,3.40
2022-10-17T15:55:13.956Z,4.32
2022-10-17T15:57:42.776Z,4.45
2022-10-17T16:00:35.721Z,4.43
2022-10-17T16:03:02.280Z,4.75
2022-10-17T16:05:29.776Z,4.32
2022-10-17T16:07:57.817Z,4.47
2022-10-17T16:10:25.939Z,4.00
2022-10-17T16:12:52.627Z,4.18
2022-10-17T16:15:28.618Z,4.65
2022-10-17T16:17:56.582Z,4.32
2022-10-17T16:20:24.457Z,4.38
2022-10-17T16:22:51.416Z,5.03
2022-10-17T16:25:27.203Z,4.72
2022-10-17T16:27:55.842Z,4.43
2022-10-17T16:30:23.898Z,4.95
2022-10-17T16:32:51.162Z,5.10
2022-10-17T16:35:20.396Z,5.25
2022-10-17T16:37:47.628Z,5.28
2022-10-17T16:40:14.924Z,5.40
2022-10-17T16:42:41.536Z,4.80
2022-10-17T16:45:08.727Z,5.65
2022-10-17T16:47:35.325Z,5.03
2022-10-17T16:50:01.911Z,5.95
2022-10-17T16:52:28.662Z,4.65
2022-10-17T16:54:55.469Z,5.03
2022-10-17T16:57:22.104Z,4.97
2022-10-17T16:59:48.705Z,5.18
2022-10-17T17:02:17.582Z,4.93
2022-10-17T17:04:47.255Z,5.05
2022-10-17T17:07:13.994Z,4.82
2022-10-17T17:09:40.663Z,5.05
2022-10-17T17:12:07.195Z,4.93
2022-10-17T17:14:33.768Z,5.40
2022-10-17T17:17:00.368Z,5.07
2022-10-17T17:19:26.958Z,4.60
2022-10-17T17:21:53.540Z,4.47
2022-10-17T17:24:21.649Z,4.85
2022-10-17T17:26:55.641Z,6.20
2022-10-17T17:29:22.982Z,5.38
2022-10-17T17:31:50.420Z,5.07
2022-10-17T17:34:18.291Z,4.70
2022-10-17T17:36:45.335Z,5.55
2022-10-17T17:39:13.304Z,4.78
2022-10-17T17:41:40.953Z,4.97
2022-10-17T17:44:11.217Z,5.80
2022-10-17T17:46:41.160Z,5.60
2022-10-17T17:49:07.709Z,5.55
2022-10-17T17:51:34.765Z,5.47
2022-10-17T17:54:01.328Z,5.60
2022-10-17T17:56:29.921Z,5.70
2022-10-17T18:01:26.215Z,5.35
2022-10-17T18:03:54.401Z,5.18
2022-10-17T18:06:21.791Z,4.88
2022-10-17T18:08:50.916Z,6.35
2022-10-17T18:11:19.726Z,4.85
2022-10-17T18:13:53.806Z,4.85
2022-10-17T18:16:20.360Z,5.20
2022-10-17T18:18:46.929Z,5.13
2022-10-17T18:21:14.212Z,6.63
2022-10-17T18:23:42.474Z,7.18
2022-10-17T18:26:09.718Z,8.02
2022-10-17T18:28:38.154Z,8.55
2022-10-17T18:33:40.032Z,8.13
2022-10-17T18:36:09.237Z,7.80
2022-10-17T18:38:36.089Z,7.57
2022-10-17T18:41:13.761Z,8.80
2022-10-17T18:43:42.030Z,8.13
2022-10-17T18:46:14.881Z,7.18
2022-10-17T18:48:44.376Z,8.35
2022-10-17T18:51:11.549Z,8.55
2022-10-17T18:53:42.229Z,8.57
2022-10-17T18:56:09.483Z,7.97
2022-10-17T18:58:37.525Z,8.88
2022-10-17T19:01:10.753Z,7.32
2022-10-17T19:03:38.407Z,8.07
2022-10-17T19:06:07.497Z,6.93
2022-10-17T19:08:35.187Z,7.15
2022-10-17T19:11:16.849Z,7.43
2022-10-17T19:16:18.920Z,7.35
2022-10-17T19:18:50.579Z,7.30
2022-10-17T19:21:21.662Z,7.63
2022-10-17T19:23:51.083Z,7.53
2022-10-17T19:26:17.915Z,8.80
2022-10-17T19:28:44.900Z,7.53
2022-10-17T19:31:15.418Z,7.45
2022-10-17T19:33:44.314Z,8.57
2022-10-17T19:36:11.721Z,8.65
2022-10-17T19:38:38.464Z,9.15
2022-10-17T19:41:09.272Z,9.40
2022-10-17T19:43:37.581Z,10.50
2022-10-17T19:46:06.696Z,9.30
2022-10-17T19:48:34.916Z,9.48
2022-10-17T19:51:01.478Z,9.88
2022-10-17T19:53:29.383Z,10.60
2022-10-17T19:55:57.144Z,9.65
2022-10-17T19:58:25.055Z,9.43
2022-10-17T20:00:57.191Z,10.23
2022-10-17T20:03:24.861Z,8.38
2022-10-17T20:05:51.720Z,9.73
2022-10-17T20:08:18.658Z,10.43
2022-10-17T20:10:46.227Z,9.63
2022-10-17T20:13:13.899Z,10.13
2022-10-17T20:15:40.871Z,10.93
2022-10-17T20:18:08.535Z,10.95
2022-10-17T20:20:36.099Z,10.30
2022-10-17T20:23:03.581Z,9.13
2022-10-17T20:25:30.192Z,9.65
2022-10-17T20:27:56.719Z,10.85
2022-10-17T20:30:23.292Z,11.02
2022-10-17T20:32:55.103Z,10.90
2022-10-17T20:35:22.634Z,11.25
2022-10-17T20:37:49.232Z,9.50
2022-10-17T20:40:34.673Z,10.48
2022-10-17T20:43:02.358Z,10.93
2022-10-17T20:45:43.702Z,11.13
2022-10-17T20:48:16.043Z,11.55
2022-10-17T20:50:43.634Z,11.68
2022-10-17T20:53:35.560Z,11.60
2022-10-17T20:56:08.917Z,10.65
2022-10-17T20:58:35.896Z,12.83
2022-10-17T21:01:09.554Z,12.30
2022-10-17T21:03:39.895Z,11.27
2022-10-17T21:06:11.157Z,11.02
2022-10-17T21:08:37.844Z,11.82
2022-10-17T21:11:16.654Z,11.68
2022-10-17T21:13:43.598Z,9.82
2022-10-17T21:16:18.031Z,9.60
2022-10-17T21:18:45.121Z,12.07
2022-10-17T21:21:11.661Z,10.45
2022-10-17T21:23:39.577Z,11.63
2022-10-17T21:26:08.240Z,12.38
2022-10-17T21:28:35.145Z,11.95
2022-10-17T21:31:21.124Z,10.70
2022-10-17T21:33:56.474Z,10.45
2022-10-17T21:36:24.462Z,10.10
2022-10-17T21:38:52.464Z,9.98
2022-10-17T21:41:20.881Z,9.63
2022-10-17T21:43:48.275Z,10.52
2022-10-17T21:46:17.902Z,10.15
2022-10-17T21:48:44.924Z,7.20
2022-10-17T21:51:16.164Z,6.15
2022-10-17T21:53:43.131Z,5.53
2022-10-17T21:56:12.307Z,7.13
2022-10-17T21:58:39.229Z,8.63
2022-10-17T22:01:10.755Z,6.95
2022-10-17T22:03:42.696Z,6.30
2022-10-17T22:09:00.840Z,9.10
2022-10-17T22:11:30.395Z,8.27
2022-10-17T22:13:59.279Z,8.15
2022-10-17T22:16:26.431Z,7.70
2022-10-17T22:18:56.711Z,7.15
2022-10-17T22:21:23.857Z,8.43
2022-10-17T22:24:04.062Z,7.80
2022-10-17T22:26:32.225Z,9.25
2022-10-17T22:28:58.930Z,7.80
2022-10-17T22:31:26.172Z,7.60
2022-10-17T22:33:53.113Z,6.47
2022-10-17T22:36:20.060Z,8.80
2022-10-17T22:38:46.673Z,9.77
2022-10-17T22:41:13.237Z,7.38
2022-10-17T22:43:39.904Z,6.90
2022-10-17T22:46:07.203Z,7.72
2022-10-17T22:48:34.167Z,7.53
2022-10-17T22:51:01.186Z,7.30
2022-10-17T22:53:27.856Z,7.90
2022-10-17T22:55:58.698Z,8.30
2022-10-17T22:58:25.936Z,8.15
2022-10-17T23:00:53.431Z,7.90
2022-10-17T23:03:21.214Z,7.90
2022-10-17T23:05:47.804Z,9.73
2022-10-17T23:08:15.145Z,8.88
2022-10-17T23:10:42.084Z,9.35
2022-10-17T23:13:08.687Z,8.93
2022-10-17T23:15:35.333Z,9.00
2022-10-17T23:18:02.467Z,9.23
2022-10-17T23:20:30.089Z,8.00
2022-10-17T23:22:57.908Z,9.47
2022-10-17T23:25:24.971Z,8.75
2022-10-17T23:27:51.839Z,9.10
2022-10-17T23:30:18.555Z,7.95
2022-10-17T23:32:45.387Z,8.68
2022-10-17T23:35:12.456Z,7.82
2022-10-17T23:37:39.032Z,8.32
2022-10-17T23:40:06.206Z,7.80
2022-10-17T23:42:32.752Z,8.77
2022-10-17T23:44:59.420Z,9.65
2022-10-17T23:47:26.048Z,9.18
2022-10-17T23:49:52.603Z,9.20
2022-10-17T23:52:19.203Z,8.32
2022-10-17T23:54:45.794Z,7.38
2022-10-17T23:57:12.376Z,9.80
2022-10-17T23:59:38.969Z,8.23
